^^
Grace C. Lehan Memorial Weather Station Historical Data
Daily Summary for October 05, 2022 Units:  Both    English   Metric
Daily Weekly Monthly Yearly
  High: Low: Average:
Temperature: 61.2 °F /  16.2 °C 52.5 °F /  11.4 °C 55.9 °F /  13.3 °C
Dew Point: 58.7 °F /  14.8 °C 51.1 °F /  10.6 °C 54.1 °F /  12.3 °C
Humidity: 96% 86% 94%
Wind Speed: 9mph /  14.5km/h - 0.8mph /  1.3km/h
Wind Gust: 17mph /  27.4km/h - -
Wind- - SW
Pressure: 29.95 in /  1014.1 hPa 29.86 in /  1011.1 hPa -
Precipitation: 0.02 in /  0.51 mm    
 
 
Tabular Data for October 05, 2022
Time Temperature Dew Point Pressure Wind Wind Speed Wind Gust Humidity Rainfall Rate (Hourly) solar
00:09 53.6 °F /  12 °C 52.2 °F /  11.2 °C 29.95in /  1014.1hPa NNW 0.2mph /  0.3km/h 2mph /  3.2km/h 95% 0.02in /  0.51mm 0 W/m2
00:14 53.6 °F /  12 °C 52.2 °F /  11.2 °C 29.95in /  1014.1hPa NW 0.6mph /  1km/h 6mph /  9.7km/h 95% 0.02in /  0.51mm 0 W/m2
00:19 53.6 °F /  12 °C 52.2 °F /  11.2 °C 29.95in /  1014.1hPa North 0.5mph /  0.8km/h 6mph /  9.7km/h 95% 0.02in /  0.51mm 0 W/m2
00:24 53.6 °F /  12 °C 52.2 °F /  11.2 °C 29.95in /  1014.1hPa North 0.5mph /  0.8km/h 6mph /  9.7km/h 95% 0.02in /  0.51mm 0 W/m2
00:29 53.6 °F /  12 °C 52.2 °F /  11.2 °C 29.95in /  1014.1hPa NNW 0.3mph /  0.5km/h 6mph /  9.7km/h 95% 0.02in /  0.51mm 0 W/m2
00:34 53.6 °F /  12 °C 52.2 °F /  11.2 °C 29.95in /  1014.1hPa NNW 1.1mph /  1.8km/h 7mph /  11.3km/h 95% 0.02in /  0.51mm 0 W/m2
00:39 53.6 °F /  12 °C 52.2 °F /  11.2 °C 29.94in /  1013.8hPa North 1.5mph /  2.4km/h 7mph /  11.3km/h 95% 0.00in /  0mm 0 W/m2
00:44 53.6 °F /  12 °C 52.2 °F /  11.2 °C 29.94in /  1013.8hPa North 0.7mph /  1.1km/h 7mph /  11.3km/h 95% 0.01in /  0.25mm 0 W/m2
00:49 53.6 °F /  12 °C 52.2 °F /  11.2 °C 29.93in /  1013.4hPa NNW 1.3mph /  2.1km/h 10mph /  16.1km/h 95% 0.01in /  0.25mm 0 W/m2
00:54 53.6 °F /  12 °C 52.2 °F /  11.2 °C 29.93in /  1013.4hPa North 1.5mph /  2.4km/h 11mph /  17.7km/h 95% 0.01in /  0.25mm 0 W/m2
00:59 53.6 °F /  12 °C 52.2 °F /  11.2 °C 29.92in /  1013.1hPa NNE 1.1mph /  1.8km/h 11mph /  17.7km/h 95% 0.01in /  0.25mm 0 W/m2
01:04 53.6 °F /  12 °C 52.2 °F /  11.2 °C 29.92in /  1013.1hPa ENE 0.6mph /  1km/h 11mph /  17.7km/h 95% 0.01in /  0.25mm 0 W/m2
01:09 53.5 °F /  11.9 °C 52.1 °F /  11.2 °C 29.92in /  1013.1hPa ENE 0.9mph /  1.4km/h 7mph /  11.3km/h 95% 0.01in /  0.25mm 0 W/m2
01:14 53.6 °F /  12 °C 52.2 °F /  11.2 °C 29.92in /  1013.1hPa NW 1.4mph /  2.3km/h 9mph /  14.5km/h 95% 0.01in /  0.25mm 0 W/m2
01:19 53.6 °F /  12 °C 52.2 °F /  11.2 °C 29.92in /  1013.1hPa NE 1.1mph /  1.8km/h 9mph /  14.5km/h 95% 0.01in /  0.25mm 0 W/m2
01:24 53.6 °F /  12 °C 52.2 °F /  11.2 °C 29.92in /  1013.1hPa NE 1mph /  1.6km/h 9mph /  14.5km/h 95% 0.01in /  0.25mm 0 W/m2
01:29 53.6 °F /  12 °C 52.2 °F /  11.2 °C 29.91in /  1012.8hPa NNE 0.8mph /  1.3km/h 10mph /  16.1km/h 95% 0.01in /  0.25mm 0 W/m2
01:34 53.7 °F /  12.1 °C 52.3 °F /  11.3 °C 29.91in /  1012.8hPa NNE 1.2mph /  1.9km/h 10mph /  16.1km/h 95% 0.01in /  0.25mm 0 W/m2
01:39 53.7 °F /  12.1 °C 52.3 °F /  11.3 °C 29.90in /  1012.4hPa NNW 0.9mph /  1.4km/h 10mph /  16.1km/h 95% 0.01in /  0.25mm 0 W/m2
01:44 53.7 °F /  12.1 °C 52.3 °F /  11.3 °C 29.90in /  1012.4hPa NNE 1.3mph /  2.1km/h 10mph /  16.1km/h 95% 0.01in /  0.25mm 0 W/m2
01:49 53.7 °F /  12.1 °C 52.3 °F /  11.3 °C 29.90in /  1012.4hPa NE 1.6mph /  2.6km/h 10mph /  16.1km/h 95% 0.01in /  0.25mm 0 W/m2
01:54 53.7 °F /  12.1 °C 52.3 °F /  11.3 °C 29.90in /  1012.4hPa North 1.4mph /  2.3km/h 13mph /  20.9km/h 95% 0.01in /  0.25mm 0 W/m2
01:59 53.7 °F /  12.1 °C 52.3 °F /  11.3 °C 29.90in /  1012.4hPa NE 0.8mph /  1.3km/h 13mph /  20.9km/h 95% 0.01in /  0.25mm 0 W/m2
02:04 53.7 °F /  12.1 °C 52.3 °F /  11.3 °C 29.90in /  1012.4hPa NE 0.5mph /  0.8km/h 13mph /  20.9km/h 95% 0.01in /  0.25mm 0 W/m2
02:09 53.7 °F /  12.1 °C 52.3 °F /  11.3 °C 29.91in /  1012.8hPa NNE 1.9mph /  3.1km/h 9mph /  14.5km/h 95% 0.00in /  0mm 0 W/m2
02:14 53.7 °F /  12.1 °C 52.3 °F /  11.3 °C 29.91in /  1012.8hPa NNE 1mph /  1.6km/h 9mph /  14.5km/h 95% 0.00in /  0mm 0 W/m2
02:19 53.8 °F /  12.1 °C 52.4 °F /  11.3 °C 29.91in /  1012.8hPa NNW 1mph /  1.6km/h 12mph /  19.3km/h 95% 0.00in /  0mm 0 W/m2
02:24 53.8 °F /  12.1 °C 52.4 °F /  11.3 °C 29.91in /  1012.8hPa NNW 1.7mph /  2.7km/h 13mph /  20.9km/h 95% 0.00in /  0mm 0 W/m2
02:29 53.8 °F /  12.1 °C 52.4 °F /  11.3 °C 29.92in /  1013.1hPa North 1mph /  1.6km/h 13mph /  20.9km/h 95% 0.00in /  0mm 0 W/m2
02:34 53.8 °F /  12.1 °C 52.4 °F /  11.3 °C 29.92in /  1013.1hPa NW 0.7mph /  1.1km/h 13mph /  20.9km/h 95% 0.01in /  0.25mm 0 W/m2
02:39 53.8 °F /  12.1 °C 52.4 °F /  11.3 °C 29.92in /  1013.1hPa NW 0.5mph /  0.8km/h 12mph /  19.3km/h 95% 0.01in /  0.25mm 0 W/m2
02:44 53.8 °F /  12.1 °C 52.4 °F /  11.3 °C 29.92in /  1013.1hPa North 0.6mph /  1km/h 12mph /  19.3km/h 95% 0.02in /  0.51mm 0 W/m2
02:49 53.8 °F /  12.1 °C 52.4 °F /  11.3 °C 29.92in /  1013.1hPa NNW 0.1mph /  0.2km/h 12mph /  19.3km/h 95% 0.02in /  0.51mm 0 W/m2
02:54 53.7 °F /  12.1 °C 52.3 °F /  11.3 °C 29.92in /  1013.1hPa NNW 0.6mph /  1km/h 12mph /  19.3km/h 95% 0.03in /  0.76mm 0 W/m2
02:59 53.7 °F /  12.1 °C 52.3 °F /  11.3 °C 29.92in /  1013.1hPa North 0.8mph /  1.3km/h 12mph /  19.3km/h 95% 0.03in /  0.76mm 0 W/m2
03:04 53.7 °F /  12.1 °C 52.3 °F /  11.3 °C 29.92in /  1013.1hPa NW 1.1mph /  1.8km/h 12mph /  19.3km/h 95% 0.04in /  1.02mm 0 W/m2
03:09 53.6 °F /  12 °C 52.2 °F /  11.2 °C 29.92in /  1013.1hPa North 0.8mph /  1.3km/h 9mph /  14.5km/h 95% 0.06in /  1.52mm 0 W/m2
03:14 53.6 °F /  12 °C 52.2 °F /  11.2 °C 29.92in /  1013.1hPa Calm   9mph /  14.5km/h 95% 0.09in /  2.29mm 0 W/m2
03:19 53.5 °F /  11.9 °C 52.1 °F /  11.2 °C 29.92in /  1013.1hPa NNW 0.9mph /  1.4km/h 9mph /  14.5km/h 95% 0.10in /  2.54mm 0 W/m2
03:24 53.4 °F /  11.9 °C 52 °F /  11.1 °C 29.92in /  1013.1hPa NW 0.1mph /  0.2km/h 9mph /  14.5km/h 95% 0.11in /  2.79mm 0 W/m2
03:29 53.3 °F /  11.8 °C 51.9 °F /  11.1 °C 29.91in /  1012.8hPa NW 0.6mph /  1km/h 9mph /  14.5km/h 95% 0.12in /  3.05mm 0 W/m2
03:34 53.3 °F /  11.8 °C 51.9 °F /  11.1 °C 29.92in /  1013.1hPa NW 0.2mph /  0.3km/h 9mph /  14.5km/h 95% 0.12in /  3.05mm 0 W/m2
03:39 53.3 °F /  11.8 °C 51.9 °F /  11.1 °C 29.92in /  1013.1hPa NW 0.9mph /  1.4km/h 6mph /  9.7km/h 95% 0.12in /  3.05mm 0 W/m2
03:44 53.2 °F /  11.8 °C 51.8 °F /  11 °C 29.92in /  1013.1hPa NW 1.2mph /  1.9km/h 8mph /  12.9km/h 95% 0.12in /  3.05mm 0 W/m2
03:49 53.2 °F /  11.8 °C 51.8 °F /  11 °C 29.92in /  1013.1hPa NW 1.2mph /  1.9km/h 8mph /  12.9km/h 95% 0.12in /  3.05mm 0 W/m2
03:54 53.2 °F /  11.8 °C 51.8 °F /  11 °C 29.92in /  1013.1hPa NW 1.4mph /  2.3km/h 11mph /  17.7km/h 95% 0.12in /  3.05mm 0 W/m2
03:59 53.1 °F /  11.7 °C 51.7 °F /  10.9 °C 29.91in /  1012.8hPa NNW 2.5mph /  4km/h 11mph /  17.7km/h 95% 0.12in /  3.05mm 0 W/m2
04:00 53.1 °F /  11.7 °C 51.7 °F /  10.9 °C 29.91in /  1012.8hPa NW 9mph /  14.5km/h 11mph /  17.7km/h 95% 0.12in /  3.05mm 0 W/m2
04:09 52.9 °F /  11.6 °C 51.5 °F /  10.8 °C 29.92in /  1013.1hPa NNW 1.3mph /  2.1km/h 10mph /  16.1km/h 95% 0.10in /  2.54mm 0 W/m2
04:14 52.9 °F /  11.6 °C 51.5 °F /  10.8 °C 29.92in /  1013.1hPa NNW 0.7mph /  1.1km/h 10mph /  16.1km/h 95% 0.10in /  2.54mm 0 W/m2
04:19 52.9 °F /  11.6 °C 51.5 °F /  10.8 °C 29.92in /  1013.1hPa NW 1.3mph /  2.1km/h 10mph /  16.1km/h 95% 0.10in /  2.54mm 0 W/m2
04:24 52.8 °F /  11.6 °C 51.4 °F /  10.8 °C 29.92in /  1013.1hPa NW 2mph /  3.2km/h 11mph /  17.7km/h 95% 0.10in /  2.54mm 0 W/m2
04:29 52.8 °F /  11.6 °C 51.4 °F /  10.8 °C 29.92in /  1013.1hPa NNW 0.4mph /  0.6km/h 11mph /  17.7km/h 95% 0.10in /  2.54mm 0 W/m2
04:34 52.8 °F /  11.6 °C 51.4 °F /  10.8 °C 29.92in /  1013.1hPa NNW 1.4mph /  2.3km/h 11mph /  17.7km/h 95% 0.10in /  2.54mm 0 W/m2
04:39 52.8 °F /  11.6 °C 51.4 °F /  10.8 °C 29.92in /  1013.1hPa NNW 0.7mph /  1.1km/h 7mph /  11.3km/h 95% 0.01in /  0.25mm 0 W/m2
04:44 52.8 °F /  11.6 °C 51.4 °F /  10.8 °C 29.92in /  1013.1hPa NNW 0.9mph /  1.4km/h 9mph /  14.5km/h 95% 0.01in /  0.25mm 0 W/m2
04:49 52.8 °F /  11.6 °C 51.4 °F /  10.8 °C 29.91in /  1012.8hPa North 0.5mph /  0.8km/h 9mph /  14.5km/h 95% 0.01in /  0.25mm 0 W/m2
04:54 52.8 °F /  11.6 °C 51.4 °F /  10.8 °C 29.92in /  1013.1hPa NNW 1.1mph /  1.8km/h 9mph /  14.5km/h 95% 0.01in /  0.25mm 0 W/m2
04:59 52.8 °F /  11.6 °C 51.4 °F /  10.8 °C 29.92in /  1013.1hPa NNW 1.8mph /  2.9km/h 10mph /  16.1km/h 95% 0.01in /  0.25mm 0 W/m2
05:04 52.7 °F /  11.5 °C 51.3 °F /  10.7 °C 29.92in /  1013.1hPa NW 1.5mph /  2.4km/h 10mph /  16.1km/h 95% 0.01in /  0.25mm 0 W/m2
05:09 52.7 °F /  11.5 °C 51.3 °F /  10.7 °C 29.92in /  1013.1hPa NW 2.7mph /  4.3km/h 10mph /  16.1km/h 95% 0.01in /  0.25mm 0 W/m2
05:14 52.6 °F /  11.4 °C 51.2 °F /  10.7 °C 29.92in /  1013.1hPa NNW 1mph /  1.6km/h 10mph /  16.1km/h 95% 0.01in /  0.25mm 0 W/m2
05:19 52.6 °F /  11.4 °C 51.2 °F /  10.7 °C 29.92in /  1013.1hPa NW 1.1mph /  1.8km/h 11mph /  17.7km/h 95% 0.02in /  0.51mm 0 W/m2
05:24 52.6 °F /  11.4 °C 51.2 °F /  10.7 °C 29.92in /  1013.1hPa NNW 1.3mph /  2.1km/h 13mph /  20.9km/h 95% 0.02in /  0.51mm 0 W/m2
05:29 52.6 °F /  11.4 °C 51.2 °F /  10.7 °C 29.92in /  1013.1hPa NW 1.5mph /  2.4km/h 13mph /  20.9km/h 95% 0.02in /  0.51mm 0 W/m2
05:34 52.5 °F /  11.4 °C 51.1 °F /  10.6 °C 29.92in /  1013.1hPa NNW 2.2mph /  3.5km/h 13mph /  20.9km/h 95% 0.02in /  0.51mm 0 W/m2
05:39 52.5 °F /  11.4 °C 51.1 °F /  10.6 °C 29.92in /  1013.1hPa NW 2.5mph /  4km/h 9mph /  14.5km/h 95% 0.02in /  0.51mm 0 W/m2
05:44 52.5 °F /  11.4 °C 51.2 °F /  10.7 °C 29.90in /  1012.4hPa NW 2.2mph /  3.5km/h 11mph /  17.7km/h 95% 0.02in /  0.51mm 0 W/m2
05:49 52.5 °F /  11.4 °C 51.1 °F /  10.6 °C 29.91in /  1012.8hPa NW 1.9mph /  3.1km/h 11mph /  17.7km/h 95% 0.03in /  0.76mm 0 W/m2
05:54 52.5 °F /  11.4 °C 51.1 °F /  10.6 °C 29.91in /  1012.8hPa NW 1.7mph /  2.7km/h 13mph /  20.9km/h 95% 0.03in /  0.76mm 0 W/m2
05:59 52.5 °F /  11.4 °C 51.1 °F /  10.6 °C 29.92in /  1013.1hPa NNW 0.9mph /  1.4km/h 13mph /  20.9km/h 95% 0.03in /  0.76mm 0 W/m2
06:04 52.5 °F /  11.4 °C 51.1 °F /  10.6 °C 29.92in /  1013.1hPa NW 1.2mph /  1.9km/h 13mph /  20.9km/h 95% 0.03in /  0.76mm 0 W/m2
06:09 52.5 °F /  11.4 °C 51.1 °F /  10.6 °C 29.92in /  1013.1hPa NW 2mph /  3.2km/h 17mph /  27.4km/h 95% 0.03in /  0.76mm 0 W/m2
06:14 52.5 °F /  11.4 °C 51.1 °F /  10.6 °C 29.92in /  1013.1hPa NW 2.8mph /  4.5km/h 17mph /  27.4km/h 95% 0.04in /  1.02mm 0 W/m2
06:19 52.5 °F /  11.4 °C 51.1 °F /  10.6 °C 29.91in /  1012.8hPa NNW 1.9mph /  3.1km/h 17mph /  27.4km/h 95% 0.05in /  1.27mm 0 W/m2
06:24 52.5 °F /  11.4 °C 51.2 °F /  10.7 °C 29.92in /  1013.1hPa North 0.9mph /  1.4km/h 17mph /  27.4km/h 95.2% 0.06in /  1.52mm 0 W/m2
06:29 52.5 °F /  11.4 °C 51.3 °F /  10.7 °C 29.91in /  1012.8hPa NW 1.5mph /  2.4km/h 17mph /  27.4km/h 95.8% 0.07in /  1.78mm 0 W/m2
06:34 52.5 °F /  11.4 °C 51.4 °F /  10.8 °C 29.91in /  1012.8hPa NW 1.1mph /  1.8km/h 17mph /  27.4km/h 96% 0.07in /  1.78mm 0 W/m2
06:39 52.5 °F /  11.4 °C 51.4 °F /  10.8 °C 29.91in /  1012.8hPa NNW 1mph /  1.6km/h 13mph /  20.9km/h 96% 0.07in /  1.78mm 0 W/m2
06:44 52.5 °F /  11.4 °C 51.4 °F /  10.8 °C 29.91in /  1012.8hPa NW 0.6mph /  1km/h 13mph /  20.9km/h 96% 0.08in /  2.03mm 0 W/m2
06:49 52.5 °F /  11.4 °C 51.4 °F /  10.8 °C 29.91in /  1012.8hPa NW 0.8mph /  1.3km/h 13mph /  20.9km/h 96% 0.09in /  2.29mm 0 W/m2
06:54 52.6 °F /  11.4 °C 51.5 °F /  10.8 °C 29.91in /  1012.8hPa WNW 1.1mph /  1.8km/h 13mph /  20.9km/h 96% 0.09in /  2.29mm 0 W/m2
06:59 52.6 °F /  11.4 °C 51.5 °F /  10.8 °C 29.91in /  1012.8hPa NNW 1.6mph /  2.6km/h 13mph /  20.9km/h 96% 0.10in /  2.54mm 0 W/m2
07:04 52.6 °F /  11.4 °C 51.5 °F /  10.8 °C 29.91in /  1012.8hPa NNW 0.9mph /  1.4km/h 13mph /  20.9km/h 96% 0.10in /  2.54mm 0 W/m2
07:09 52.6 °F /  11.4 °C 51.5 °F /  10.8 °C 29.91in /  1012.8hPa NW 1.5mph /  2.4km/h 11mph /  17.7km/h 96% 0.09in /  2.29mm 0 W/m2
07:14 52.7 °F /  11.5 °C 51.6 °F /  10.9 °C 29.91in /  1012.8hPa NNW 1.4mph /  2.3km/h 11mph /  17.7km/h 96% 0.09in /  2.29mm 0 W/m2
07:19 52.7 °F /  11.5 °C 51.6 °F /  10.9 °C 29.91in /  1012.8hPa NW 1.3mph /  2.1km/h 11mph /  17.7km/h 96% 0.09in /  2.29mm 0 W/m2
07:24 52.7 °F /  11.5 °C 51.6 °F /  10.9 °C 29.91in /  1012.8hPa North 0.1mph /  0.2km/h 11mph /  17.7km/h 96% 0.10in /  2.54mm 0 W/m2
07:29 52.8 °F /  11.6 °C 51.6 °F /  10.9 °C 29.91in /  1012.8hPa North 0.2mph /  0.3km/h 11mph /  17.7km/h 96% 0.10in /  2.54mm 0 W/m2
07:34 52.8 °F /  11.6 °C 51.7 °F /  10.9 °C 29.91in /  1012.8hPa NNW 1.1mph /  1.8km/h 11mph /  17.7km/h 96% 0.10in /  2.54mm 7 W/m2
07:39 52.8 °F /  11.6 °C 51.7 °F /  10.9 °C 29.92in /  1013.1hPa NNW 0.2mph /  0.3km/h 7mph /  11.3km/h 96% 0.06in /  1.52mm 9 W/m2
07:44 52.9 °F /  11.6 °C 51.8 °F /  11 °C 29.92in /  1013.1hPa NNW 0.8mph /  1.3km/h 7mph /  11.3km/h 96% 0.06in /  1.52mm 12 W/m2
07:49 52.9 °F /  11.6 °C 51.8 °F /  11 °C 29.92in /  1013.1hPa NNW 1.2mph /  1.9km/h 11mph /  17.7km/h 96% 0.06in /  1.52mm 26 W/m2
07:54 53 °F /  11.7 °C 51.9 °F /  11.1 °C 29.91in /  1012.8hPa NNW 0.3mph /  0.5km/h 11mph /  17.7km/h 96% 0.06in /  1.52mm 39 W/m2
07:59 53 °F /  11.7 °C 51.9 °F /  11.1 °C 29.91in /  1012.8hPa NNE 0.7mph /  1.1km/h 11mph /  17.7km/h 96% 0.06in /  1.52mm 56 W/m2
08:09 53 °F /  11.7 °C 51.9 °F /  11.1 °C 29.91in /  1012.8hPa North 1.4mph /  2.3km/h 10mph /  16.1km/h 96% 0.02in /  0.51mm 62 W/m2
08:14 53.1 °F /  11.7 °C 52 °F /  11.1 °C 29.91in /  1012.8hPa NE 0.4mph /  0.6km/h 10mph /  16.1km/h 96% 0.02in /  0.51mm 83 W/m2
08:19 53.1 °F /  11.7 °C 52 °F /  11.1 °C 29.91in /  1012.8hPa NNW 0.6mph /  1km/h 10mph /  16.1km/h 96% 0.02in /  0.51mm 88 W/m2
08:24 53.2 °F /  11.8 °C 52.1 °F /  11.2 °C 29.91in /  1012.8hPa NNW 1.2mph /  1.9km/h 10mph /  16.1km/h 96% 0.02in /  0.51mm 88 W/m2
08:29 53.2 °F /  11.8 °C 52.1 °F /  11.2 °C 29.91in /  1012.8hPa NNE 1.6mph /  2.6km/h 12mph /  19.3km/h 96% 0.02in /  0.51mm 58 W/m2
08:34 53.2 °F /  11.8 °C 52.1 °F /  11.2 °C 29.91in /  1012.8hPa NE 0.2mph /  0.3km/h 12mph /  19.3km/h 96% 0.02in /  0.51mm 88 W/m2
08:39 53.2 °F /  11.8 °C 52.1 °F /  11.2 °C 29.91in /  1012.8hPa North 1.6mph /  2.6km/h 12mph /  19.3km/h 96% 0.00in /  0mm 93 W/m2
08:44 53.3 °F /  11.8 °C 52.2 °F /  11.2 °C 29.91in /  1012.8hPa NNE 1.1mph /  1.8km/h 12mph /  19.3km/h 96% 0.01in /  0.25mm 121 W/m2
08:49 53.3 °F /  11.8 °C 52.2 °F /  11.2 °C 29.91in /  1012.8hPa NE 0.9mph /  1.4km/h 12mph /  19.3km/h 96% 0.01in /  0.25mm 127 W/m2
08:54 53.4 °F /  11.9 °C 52.3 °F /  11.3 °C 29.92in /  1013.1hPa NNE 1.5mph /  2.4km/h 12mph /  19.3km/h 96% 0.01in /  0.25mm 104 W/m2
08:59 53.3 °F /  11.8 °C 52.2 °F /  11.2 °C 29.92in /  1013.1hPa NE 1.4mph /  2.3km/h 12mph /  19.3km/h 96% 0.01in /  0.25mm 83 W/m2
09:04 53.3 °F /  11.8 °C 52.2 °F /  11.2 °C 29.92in /  1013.1hPa NNE 1.3mph /  2.1km/h 12mph /  19.3km/h 96% 0.01in /  0.25mm 81 W/m2
09:09 53.4 °F /  11.9 °C 52.3 °F /  11.3 °C 29.92in /  1013.1hPa North 1.4mph /  2.3km/h 10mph /  16.1km/h 96% 0.01in /  0.25mm 81 W/m2
09:14 53.5 °F /  11.9 °C 52.4 °F /  11.3 °C 29.92in /  1013.1hPa ENE 1mph /  1.6km/h 10mph /  16.1km/h 96% 0.01in /  0.25mm 62 W/m2
09:19 53.6 °F /  12 °C 52.4 °F /  11.3 °C 29.92in /  1013.1hPa NNE 1.5mph /  2.4km/h 10mph /  16.1km/h 96% 0.01in /  0.25mm 63 W/m2
09:24 53.6 °F /  12 °C 52.5 °F /  11.4 °C 29.92in /  1013.1hPa ENE 1.7mph /  2.7km/h 10mph /  16.1km/h 96% 0.01in /  0.25mm 51 W/m2
09:29 53.6 °F /  12 °C 52.5 °F /  11.4 °C 29.92in /  1013.1hPa NE 1.2mph /  1.9km/h 10mph /  16.1km/h 96% 0.01in /  0.25mm 44 W/m2
09:34 53.6 °F /  12 °C 52.5 °F /  11.4 °C 29.92in /  1013.1hPa NNE 1mph /  1.6km/h 10mph /  16.1km/h 96% 0.01in /  0.25mm 44 W/m2
09:39 53.7 °F /  12.1 °C 52.6 °F /  11.4 °C 29.92in /  1013.1hPa NNE 0.7mph /  1.1km/h 9mph /  14.5km/h 96% 0.01in /  0.25mm 60 W/m2
09:44 53.7 °F /  12.1 °C 52.6 °F /  11.4 °C 29.92in /  1013.1hPa NNE 0.7mph /  1.1km/h 9mph /  14.5km/h 96% 0.01in /  0.25mm 69 W/m2
09:49 53.8 °F /  12.1 °C 52.7 °F /  11.5 °C 29.92in /  1013.1hPa NE 1.2mph /  1.9km/h 9mph /  14.5km/h 96% 0.01in /  0.25mm 70 W/m2
09:54 53.9 °F /  12.2 °C 52.8 °F /  11.6 °C 29.92in /  1013.1hPa NNE 0.5mph /  0.8km/h 9mph /  14.5km/h 96% 0.01in /  0.25mm 70 W/m2
09:59 54 °F /  12.2 °C 52.9 °F /  11.6 °C 29.92in /  1013.1hPa North 0.3mph /  0.5km/h 9mph /  14.5km/h 96% 0.01in /  0.25mm 49 W/m2
10:04 54 °F /  12.2 °C 52.9 °F /  11.6 °C 29.92in /  1013.1hPa NE 0.6mph /  1km/h 9mph /  14.5km/h 96% 0.01in /  0.25mm 47 W/m2
10:09 54 °F /  12.2 °C 52.9 °F /  11.6 °C 29.92in /  1013.1hPa NNE 0.8mph /  1.3km/h 5mph /  8km/h 96% 0.01in /  0.25mm 54 W/m2
10:14 53.9 °F /  12.2 °C 52.8 °F /  11.6 °C 29.92in /  1013.1hPa NNE 0.9mph /  1.4km/h 12mph /  19.3km/h 96% 0.02in /  0.51mm 77 W/m2
10:19 54 °F /  12.2 °C 52.9 °F /  11.6 °C 29.92in /  1013.1hPa NNE 1mph /  1.6km/h 12mph /  19.3km/h 96% 0.02in /  0.51mm 95 W/m2
10:24 54.1 °F /  12.3 °C 52.9 °F /  11.6 °C 29.92in /  1013.1hPa NE 0.8mph /  1.3km/h 12mph /  19.3km/h 96% 0.02in /  0.51mm 102 W/m2
10:29 54.2 °F /  12.3 °C 53.1 °F /  11.7 °C 29.92in /  1013.1hPa NNE 0.6mph /  1km/h 12mph /  19.3km/h 96% 0.02in /  0.51mm 104 W/m2
10:34 54.3 °F /  12.4 °C 53.2 °F /  11.8 °C 29.92in /  1013.1hPa NE 1mph /  1.6km/h 12mph /  19.3km/h 96% 0.02in /  0.51mm 104 W/m2
10:38 54.4 °F /  12.4 °C 53.3 °F /  11.8 °C 29.92in /  1013.1hPa NE 1.1mph /  1.8km/h 6mph /  9.7km/h 96% 0.02in /  0.51mm 113 W/m2
11:00 54.9 °F /  12.7 °C 53.8 °F /  12.1 °C 29.92in /  1013.1hPa NW 1mph /  1.6km/h 11mph /  17.7km/h 96% 0.00in /  0mm 118 W/m2
11:30 55.8 °F /  13.2 °C 54.4 °F /  12.4 °C 29.91in /  1012.8hPa ENE 1mph /  1.6km/h 12mph /  19.3km/h 95% 0.00in /  0mm 187 W/m2
12:04 56.7 °F /  13.7 °C 55.1 °F /  12.8 °C 29.90in /  1012.4hPa SSE 0.9mph /  1.4km/h 5mph /  8km/h 94.3% 0.00in /  0mm 169 W/m2
12:09 56.7 °F /  13.7 °C 55 °F /  12.8 °C 29.90in /  1012.4hPa NE 0.9mph /  1.4km/h 7mph /  11.3km/h 94% 0.00in /  0mm 209 W/m2
12:14 56.8 °F /  13.8 °C 55.1 °F /  12.8 °C 29.90in /  1012.4hPa North 0.8mph /  1.3km/h 12mph /  19.3km/h 94% 0.00in /  0mm 267 W/m2
12:19 57.1 °F /  13.9 °C 55.4 °F /  13 °C 29.90in /  1012.4hPa NNW 2mph /  3.2km/h 12mph /  19.3km/h 94% 0.00in /  0mm 304 W/m2
12:24 57.3 °F /  14.1 °C 55.6 °F /  13.1 °C 29.89in /  1012.1hPa NNE 1.2mph /  1.9km/h 12mph /  19.3km/h 94% 0.00in /  0mm 304 W/m2
12:29 57.4 °F /  14.1 °C 55.5 °F /  13.1 °C 29.90in /  1012.4hPa NNE 0.5mph /  0.8km/h 12mph /  19.3km/h 93.2% 0.00in /  0mm 206 W/m2
12:34 57.5 °F /  14.2 °C 55.5 °F /  13.1 °C 29.89in /  1012.1hPa NE 0.5mph /  0.8km/h 12mph /  19.3km/h 93% 0.03in /  0.76mm 165 W/m2
12:39 57.6 °F /  14.2 °C 55.6 °F /  13.1 °C 29.89in /  1012.1hPa NNE 1.1mph /  1.8km/h 6mph /  9.7km/h 93% 0.03in /  0.76mm 160 W/m2
12:44 57.7 °F /  14.3 °C 55.7 °F /  13.2 °C 29.89in /  1012.1hPa Calm   6mph /  9.7km/h 93% 0.03in /  0.76mm 148 W/m2
12:49 57.7 °F /  14.3 °C 55.6 °F /  13.1 °C 29.89in /  1012.1hPa Calm   6mph /  9.7km/h 92.7% 0.03in /  0.76mm 139 W/m2
12:54 57.7 °F /  14.3 °C 55.5 °F /  13.1 °C 29.89in /  1012.1hPa NE 1.2mph /  1.9km/h 11mph /  17.7km/h 92.3% 0.03in /  0.76mm 118 W/m2
12:59 57.7 °F /  14.3 °C 55.4 °F /  13 °C 29.89in /  1012.1hPa NNW 1.1mph /  1.8km/h 12mph /  19.3km/h 92% 0.03in /  0.76mm 121 W/m2
13:04 57.7 °F /  14.3 °C 55.4 °F /  13 °C 29.88in /  1011.7hPa NNW 0.2mph /  0.3km/h 12mph /  19.3km/h 92% 0.03in /  0.76mm 134 W/m2
13:09 57.8 °F /  14.3 °C 55.5 °F /  13.1 °C 29.88in /  1011.7hPa NNW 0.6mph /  1km/h 10mph /  16.1km/h 92% 0.00in /  0mm 146 W/m2
13:14 57.9 °F /  14.4 °C 55.6 °F /  13.1 °C 29.88in /  1011.7hPa WNW 0.4mph /  0.6km/h 10mph /  16.1km/h 92% 0.00in /  0mm 132 W/m2
13:18 58 °F /  14.4 °C 55.7 °F /  13.2 °C 29.88in /  1011.7hPa NW 1.3mph /  2.1km/h 10mph /  16.1km/h 92% 0.00in /  0mm 148 W/m2
13:30 58.3 °F /  14.6 °C 56 °F /  13.3 °C 29.87in /  1011.4hPa NNW 1mph /  1.6km/h 10mph /  16.1km/h 92% 0.00in /  0mm 136 W/m2
14:00 59.9 °F /  15.5 °C 57.3 °F /  14.1 °C 29.86in /  1011.1hPa Calm   6mph /  9.7km/h 91% 0.00in /  0mm 183 W/m2
14:30 60.2 °F /  15.7 °C 57 °F /  13.9 °C 29.86in /  1011.1hPa East 1mph /  1.6km/h 11mph /  17.7km/h 89% 0.00in /  0mm 116 W/m2
15:00 60.4 °F /  15.8 °C 56.8 °F /  13.8 °C 29.87in /  1011.4hPa Calm   7mph /  11.3km/h 88% 0.00in /  0mm 97 W/m2
15:30 61.1 °F /  16.2 °C 57.2 °F /  14 °C 29.87in /  1011.4hPa ENE 1mph /  1.6km/h 11mph /  17.7km/h 87% 0.00in /  0mm 125 W/m2
16:04 61.2 °F /  16.2 °C 57 °F /  13.9 °C 29.87in /  1011.4hPa NNE 0.3mph /  0.5km/h 2mph /  3.2km/h 86% 0.00in /  0mm 60 W/m2
16:09 61.2 °F /  16.2 °C 57 °F /  13.9 °C 29.87in /  1011.4hPa NE 0.2mph /  0.3km/h 3mph /  4.8km/h 86% 0.00in /  0mm 54 W/m2
16:14 61.2 °F /  16.2 °C 57 °F /  13.9 °C 29.87in /  1011.4hPa NE 0.1mph /  0.2km/h 3mph /  4.8km/h 86% 0.00in /  0mm 51 W/m2
16:19 61.2 °F /  16.2 °C 57 °F /  13.9 °C 29.88in /  1011.7hPa NE 0.2mph /  0.3km/h 3mph /  4.8km/h 86% 0.00in /  0mm 53 W/m2
16:24 61.2 °F /  16.2 °C 57 °F /  13.9 °C 29.88in /  1011.7hPa NW 0.4mph /  0.6km/h 4mph /  6.4km/h 86% 0.00in /  0mm 32 W/m2
16:29 61.2 °F /  16.2 °C 57 °F /  13.9 °C 29.88in /  1011.7hPa NNW 0.7mph /  1.1km/h 4mph /  6.4km/h 86.2% 0.00in /  0mm 25 W/m2
16:34 61.1 °F /  16.2 °C 57.1 °F /  13.9 °C 29.88in /  1011.7hPa NNW 0.1mph /  0.2km/h 4mph /  6.4km/h 86.5% 0.00in /  0mm 21 W/m2
16:39 61 °F /  16.1 °C 56.9 °F /  13.8 °C 29.88in /  1011.7hPa Calm   3mph /  4.8km/h 86.1% 0.00in /  0mm 16 W/m2
16:44 61 °F /  16.1 °C 57.1 °F /  13.9 °C 29.88in /  1011.7hPa NNW 0.3mph /  0.5km/h 4mph /  6.4km/h 86.9% 0.00in /  0mm 12 W/m2
16:49 61 °F /  16.1 °C 57.1 °F /  13.9 °C 29.88in /  1011.7hPa NNW 0.1mph /  0.2km/h 4mph /  6.4km/h 87% 0.00in /  0mm 9 W/m2
16:54 61 °F /  16.1 °C 57.1 °F /  13.9 °C 29.88in /  1011.7hPa Calm   4mph /  6.4km/h 87% 0.00in /  0mm 5 W/m2
16:59 60.9 °F /  16.1 °C 57 °F /  13.9 °C 29.88in /  1011.7hPa Calm   4mph /  6.4km/h 87% 0.00in /  0mm 5 W/m2
17:04 60.9 °F /  16.1 °C 57 °F /  13.9 °C 29.88in /  1011.7hPa North 0.1mph /  0.2km/h 4mph /  6.4km/h 87% 0.00in /  0mm 5 W/m2
17:09 60.9 °F /  16.1 °C 57 °F /  13.9 °C 29.88in /  1011.7hPa Calm   2mph /  3.2km/h 87.1% 0.00in /  0mm 7 W/m2
17:14 60.9 °F /  16.1 °C 57.3 °F /  14.1 °C 29.88in /  1011.7hPa Calm   2mph /  3.2km/h 88% 0.00in /  0mm 5 W/m2
17:19 60.9 °F /  16.1 °C 57.3 °F /  14.1 °C 29.88in /  1011.7hPa NNW 0.2mph /  0.3km/h 5mph /  8km/h 88% 0.00in /  0mm 5 W/m2
17:24 60.9 °F /  16.1 °C 57.3 °F /  14.1 °C 29.88in /  1011.7hPa Calm   5mph /  8km/h 88% 0.00in /  0mm 5 W/m2
17:29 60.9 °F /  16.1 °C 57.6 °F /  14.2 °C 29.88in /  1011.7hPa Calm   5mph /  8km/h 89% 0.01in /  0.25mm 5 W/m2
17:34 60.8 °F /  16 °C 57.6 °F /  14.2 °C 29.89in /  1012.1hPa Calm   5mph /  8km/h 89% 0.01in /  0.25mm 5 W/m2
17:39 60.7 °F /  15.9 °C 57.6 °F /  14.2 °C 29.89in /  1012.1hPa Calm     89.6% 0.01in /  0.25mm 7 W/m2
17:44 60.6 °F /  15.9 °C 57.7 °F /  14.3 °C 29.89in /  1012.1hPa Calm     90% 0.01in /  0.25mm 7 W/m2
17:49 60.6 °F /  15.9 °C 57.7 °F /  14.3 °C 29.89in /  1012.1hPa Calm     90.3% 0.02in /  0.51mm 9 W/m2
17:54 60.5 °F /  15.8 °C 57.8 °F /  14.3 °C 29.89in /  1012.1hPa Calm     90.8% 0.05in /  1.27mm 7 W/m2
17:59 60.4 °F /  15.8 °C 57.8 °F /  14.3 °C 29.89in /  1012.1hPa Calm     91% 0.07in /  1.78mm 5 W/m2
18:04 60.3 °F /  15.7 °C 57.7 °F /  14.3 °C 29.89in /  1012.1hPa Calm     91% 0.09in /  2.29mm 0 W/m2
18:09 60.3 °F /  15.7 °C 57.9 °F /  14.4 °C 29.89in /  1012.1hPa Calm     91.8% 0.11in /  2.79mm 0 W/m2
18:14 60.2 °F /  15.7 °C 57.9 °F /  14.4 °C 29.89in /  1012.1hPa Calm     92% 0.15in /  3.81mm 0 W/m2
18:19 60.1 °F /  15.6 °C 57.8 °F /  14.3 °C 29.90in /  1012.4hPa Calm     92% 0.15in /  3.81mm 0 W/m2
18:24 60 °F /  15.6 °C 57.7 °F /  14.3 °C 29.90in /  1012.4hPa Calm     92% 0.16in /  4.06mm 0 W/m2
18:29 60 °F /  15.6 °C 57.8 °F /  14.3 °C 29.89in /  1012.1hPa Calm     92.4% 0.16in /  4.06mm 0 W/m2
18:34 59.9 °F /  15.5 °C 57.9 °F /  14.4 °C 29.90in /  1012.4hPa Calm     93% 0.16in /  4.06mm 0 W/m2
18:39 59.9 °F /  15.5 °C 57.9 °F /  14.4 °C 29.90in /  1012.4hPa Calm     93% 0.16in /  4.06mm 0 W/m2
18:44 59.9 °F /  15.5 °C 57.9 °F /  14.4 °C 29.90in /  1012.4hPa Calm     93% 0.16in /  4.06mm 0 W/m2
18:49 59.9 °F /  15.5 °C 57.9 °F /  14.4 °C 29.90in /  1012.4hPa Calm     93% 0.16in /  4.06mm 0 W/m2
18:54 59.9 °F /  15.5 °C 57.9 °F /  14.4 °C 29.90in /  1012.4hPa Calm     93% 0.16in /  4.06mm 0 W/m2
18:59 59.8 °F /  15.4 °C 57.8 °F /  14.3 °C 29.90in /  1012.4hPa Calm     93% 0.16in /  4.06mm 0 W/m2
19:04 59.8 °F /  15.4 °C 57.9 °F /  14.4 °C 29.91in /  1012.8hPa Calm     93.4% 0.16in /  4.06mm 0 W/m2
19:09 59.8 °F /  15.4 °C 58.1 °F /  14.5 °C 29.91in /  1012.8hPa Calm     94% 0.10in /  2.54mm 0 W/m2
19:14 59.7 °F /  15.4 °C 58 °F /  14.4 °C 29.91in /  1012.8hPa Calm     94% 0.10in /  2.54mm 0 W/m2
19:19 59.7 °F /  15.4 °C 57.9 °F /  14.4 °C 29.91in /  1012.8hPa Calm     94% 0.10in /  2.54mm 0 W/m2
19:30 59.6 °F /  15.3 °C 57.9 °F /  14.4 °C 29.91in /  1012.8hPa Calm     94% 0.00in /  0mm 0 W/m2
20:04 59.4 °F /  15.2 °C 58 °F /  14.4 °C 29.91in /  1012.8hPa Calm     95% 0.02in /  0.51mm 0 W/m2
20:09 59.4 °F /  15.2 °C 58 °F /  14.4 °C 29.91in /  1012.8hPa Calm     95% 0.02in /  0.51mm 0 W/m2
20:14 59.4 °F /  15.2 °C 58 °F /  14.4 °C 29.91in /  1012.8hPa Calm     95% 0.02in /  0.51mm 0 W/m2
20:19 59.4 °F /  15.2 °C 57.9 °F /  14.4 °C 29.91in /  1012.8hPa Calm     94.7% 0.02in /  0.51mm 0 W/m2
20:24 59.4 °F /  15.2 °C 57.7 °F /  14.3 °C 29.91in /  1012.8hPa Calm     94% 0.02in /  0.51mm 0 W/m2
20:29 59.4 °F /  15.2 °C 57.9 °F /  14.4 °C 29.91in /  1012.8hPa Calm     94.8% 0.02in /  0.51mm 0 W/m2
20:34 59.4 °F /  15.2 °C 58 °F /  14.4 °C 29.91in /  1012.8hPa Calm     95% 0.18in /  4.57mm 0 W/m2
20:39 59.4 °F /  15.2 °C 58 °F /  14.4 °C 29.91in /  1012.8hPa Calm     95% 0.18in /  4.57mm 0 W/m2
20:44 59.4 °F /  15.2 °C 58 °F /  14.4 °C 29.91in /  1012.8hPa Calm     95% 0.19in /  4.83mm 0 W/m2
20:49 59.4 °F /  15.2 °C 58 °F /  14.4 °C 29.91in /  1012.8hPa Calm   1mph /  1.6km/h 95% 0.19in /  4.83mm 0 W/m2
20:54 59.4 °F /  15.2 °C 58 °F /  14.4 °C 29.91in /  1012.8hPa Calm   1mph /  1.6km/h 95% 0.19in /  4.83mm 0 W/m2
20:59 59.4 °F /  15.2 °C 57.9 °F /  14.4 °C 29.90in /  1012.4hPa NNW 0.6mph /  1km/h 4mph /  6.4km/h 95% 0.19in /  4.83mm 0 W/m2
21:04 59.3 °F /  15.2 °C 57.9 °F /  14.4 °C 29.90in /  1012.4hPa NNW 0.8mph /  1.3km/h 5mph /  8km/h 95% 0.19in /  4.83mm 0 W/m2
21:09 59.3 °F /  15.2 °C 57.8 °F /  14.3 °C 29.90in /  1012.4hPa NNW 1.6mph /  2.6km/h 5mph /  8km/h 95% 0.02in /  0.51mm 0 W/m2
21:14 59.2 °F /  15.1 °C 57.8 °F /  14.3 °C 29.89in /  1012.1hPa NW 0.6mph /  1km/h 5mph /  8km/h 95% 0.02in /  0.51mm 0 W/m2
21:19 59.2 °F /  15.1 °C 57.8 °F /  14.3 °C 29.89in /  1012.1hPa NNW 0.5mph /  0.8km/h 5mph /  8km/h 95% 0.02in /  0.51mm 0 W/m2
21:24 59.3 °F /  15.2 °C 57.9 °F /  14.4 °C 29.89in /  1012.1hPa NNW 1.1mph /  1.8km/h 9mph /  14.5km/h 95% 0.04in /  1.02mm 0 W/m2
21:29 59.3 °F /  15.2 °C 57.9 °F /  14.4 °C 29.90in /  1012.4hPa NW 0.7mph /  1.1km/h 9mph /  14.5km/h 95% 0.05in /  1.27mm 0 W/m2
21:34 59.4 °F /  15.2 °C 58 °F /  14.4 °C 29.90in /  1012.4hPa NW 0.4mph /  0.6km/h 9mph /  14.5km/h 95% 0.06in /  1.52mm 0 W/m2
21:39 59.4 °F /  15.2 °C 58 °F /  14.4 °C 29.90in /  1012.4hPa North 0.6mph /  1km/h 6mph /  9.7km/h 95% 0.06in /  1.52mm 0 W/m2
21:44 59.4 °F /  15.2 °C 58 °F /  14.4 °C 29.90in /  1012.4hPa NNW 0.4mph /  0.6km/h 6mph /  9.7km/h 95% 0.07in /  1.78mm 0 W/m2
21:47 59.5 °F /  15.3 °C 58 °F /  14.4 °C 29.90in /  1012.4hPa NW 0.3mph /  0.5km/h 6mph /  9.7km/h 95% 0.07in /  1.78mm 0 W/m2
22:00 59.5 °F /  15.3 °C 58.1 °F /  14.5 °C 29.90in /  1012.4hPa Calm   7mph /  11.3km/h 95% 0.01in /  0.25mm 0 W/m2
22:30 59.6 °F /  15.3 °C 58.5 °F /  14.7 °C 29.90in /  1012.4hPa Calm   6mph /  9.7km/h 96% 0.00in /  0mm 0 W/m2
23:00 59.7 °F /  15.4 °C 58.6 °F /  14.8 °C 29.90in /  1012.4hPa Calm   9mph /  14.5km/h 96% 0.00in /  0mm 0 W/m2
23:30 59.8 °F /  15.4 °C 58.7 °F /  14.8 °C 29.88in /  1011.7hPa NNW 2mph /  3.2km/h 14mph /  22.5km/h 96% 0.00in /  0mm 0 W/m2
Hartford County Weather
Compliments of Weather Underground - 4 mb